Terminal Aerodrome Forecast
Issued by NWS Rapid City, SD

Home | Current Version | Previous Version | Text Only | Print | Product List | Glossary On
Versions: 1 2 3 4 5 6 7 8 9 10 11 12 13 14 15 16 17 18 19
000
FTUS43 KUNR 241631 AAC
TAFRAP
TAF AMD
KRAP 241631Z 2417/2512 34015G25KT P6SM SCT015 BKN100
     FM241800 36015G25KT P6SM SCT020
     FM242300 03013KT P6SM BKN050
     FM250600 06013KT P6SM -RA BKN020=

USA.gov is the U.S. government's official web portal to all federal, state and local government web resources and services.